Página principal
METAR-TAF:

METAR-TAF

Aeroportos :

Saint-Louis, Senegal

latitude: 16-03N, longitude: 016-27W, altura: 4 m

Observação actual do tempo

O boletim foi feito há 47 minutos, às 13:00 UTC
Vento 10 kt de oes-sudoeste, variando entre su-sudoeste e oes-noroeste
Temperatura 29°C
Humidade 66%
Pressão 1012 hPa
Visibilidade 10 km ou mais
Poucas nuvensa uma altura de 1100 ft

METAR: GOSS 071300Z 24010KT 200V300 9999 FEW011 29/22 Q1012

Hora: 13:47 (13:47 UTC)

Previsão

O boletim foi feito há 2 horas e 17 minutos, às 11:30 UTC
Previsão válida de 07 às 12 UTC a 08 às 12 UTC
Vento 10 kt de oeste
Visibilidade 10 km ou mais
Nuvens dispersasa uma altura de 1200 ft

TAF: GOSS 071130Z 0712/0812 26010KT 9999 SCT012

Observações e previsões do tempo de mais de 4000 aeroportos (mensagens METAR e TAF).

As estações disponíveis são os pontos amarelos e vermelhos sobre o mapa.

Mova o rato sobre o mapa para ver o nome da estação.

Depois clique no ponto para visualizar as observações e previsões meteorológicas.

Para alterar o mapa : clique nos botões verdes com uma cruz preta para aumentar o zoom; no botão verde com uma pitada de zoom; ou nas setas verdes para mapas adjacentes.


METAR-TAF: